Logo AVAMET
Benvolgut visitant, si us plau, ingressa Recuperar contrasenya

Relleu Casc urbà

Dades diàries. Acumulats / Últims 30 dies disponibles

Data Temperatura (°C) Humitat rel. (%) Pressió rel. (hPa) Vent (km/h) Precipitació
Mínima Mitjana Màxima Amplitud
tèrmica
Mínima Mitjana Màxima Mínima Mitjana Màxima Predom. Mitjana Ràfega
màxima
Total
(mm)
Índex-n
Mínima Mitjana Màxima Mínima Mitjana Màxima n
0 a 1
P0 max
mm 5'
Dades mensuals acumulades fins l'últim dia disponible
11/2019 6,7 12,5 17,8 15,3 13,1 19,0 24,7 18,0 29 53 78 1.002 1.011 1.020   5,8 48,3 1,6
Dades anuals acumulades fins l'últim dia disponible
2019 2,6 14,1 27,3 18,7 9,9 24,3 38,4 35,8 12 57 95 994 1.016 1.035   1,6 53,1 336,6
Últims 30 dies disponibles
11-11-2019 6,7     10,6     14,5 7,8 41 51 61 1.011 1.012 1.014 OSO 2,5 37,0 0,0
10-11-2019 8,1     11,0     13,1 5,0 43 56 78 1.009 1.011 1.013 O 10,6 43,5 1,4
09-11-2019 9,6     12,4     16,2 6,6 32 48 74 1.012 1.017 1.020 ONO 5,4 37,0 0,2
08-11-2019 8,6     11,3     14,5 5,9 40 48 63 1.009 1.012 1.016 O 8,4 48,3 0,0
07-11-2019 10,9     14,8     19,6 8,7 29 53 68 1.007 1.009 1.013 OSO 2,8 29,0 0,0
06-11-2019 11,5     14,1     19,1 7,6 30 49 60 1.010 1.012 1.014 ONO 7,7 45,1 0,0
05-11-2019 13,3     15,1     17,2 3,9 41 53 66 1.005 1.008 1.011 O 7,4 38,6 0,0
04-11-2019 16,1     18,8     23,6 7,5 39 54 66 1.006 1.009 1.011 OSO 4,9 40,2 0,0
03-11-2019 16,7     19,0     22,7 6,0 44 55 64 1.002 1.004 1.010 OSO 4,0 40,2 0,0
02-11-2019 17,7     20,5     24,3 6,6 42 57 66 1.005 1.008 1.013 O 5,4 41,8 0,0
01-11-2019 17,8     21,2     24,7 6,9 50 61 72 1.012 1.016 1.019 ONO 5,2 37,0 0,0
31-10-2019 18,6     20,9     24,0 5,4 49 59 69 1.018 1.019 1.021 O 4,4 29,0 0,0
30-10-2019 15,3     18,7     22,7 7,4 60 72 91 1.018 1.019 1.021 SO 0,8 16,1 0,0
29-10-2019 13,4     19,5     25,7 12,3 43 63 84 1.015 1.016 1.018 SO 0,5 11,3 0,0
28-10-2019 12,4     16,0     21,1 8,7 58 80 90 1.016 1.017 1.020 OSO 0,0 4,8 0,0
27-10-2019 12,2     16,2     22,2 10,0 59 80 92 1.020 1.021 1.022 OSO 0,1 9,7 0,0
26-10-2019 13,5     17,1     22,4 8,9 47 69 93 1.019 1.020 1.021 SO 0,2 8,0 0,0
25-10-2019 13,8     16,9     21,7 7,9 48 59 78 1.020 1.021 1.023 OSO 1,9 20,9 0,0
24-10-2019 10,7     14,1     18,6 7,9 50 63 75 1.011 1.015 1.022 O 4,0 35,4 0,0
23-10-2019 9,2     12,1     17,3 8,1 54 72 89 1.005 1.008 1.011 O 1,4 20,9 7,0 0,22 2,70
22-10-2019 10,8     12,6     13,9 3,1 72 82 92 1.006 1.009 1.016 O 5,0 53,1 34,6 0,33 1,50
21-10-2019 13,4     14,7     17,6 4,2 49 68 87 1.014 1.016 1.017 SO 1,6 20,9 0,4
20-10-2019 14,1     17,0     21,1 7,0 45 65 88 1.005 1.008 1.014 O 2,1 29,0 0,0
19-10-2019 16,2     20,0     26,4 10,2 37 56 87 1.006 1.009 1.013 OSO 0,1 6,4 0,0
18-10-2019 16,9     21,4     27,2 10,3 39 51 62 1.013 1.015 1.017 SO 1,0 14,5 0,0
17-10-2019 14,1     20,0     26,2 12,1 27 45 73 1.015 1.016 1.018 OSO 1,5 14,5 0,0
16-10-2019 13,1     17,4     23,1 10,0 34 50 78 1.017 1.018 1.020 O 0,9 14,5 0,0
15-10-2019 12,8     16,8     22,9 10,1 27 46 65 1.012 1.017 1.020 O 7,9 43,5 0,0
14-10-2019 16,4     19,8     25,1 8,7 44 69 88 1.010 1.012 1.015 O 1,4 20,9 3,0 0,62 2,00
13-10-2019 17,6     21,8     28,4 10,8 41 65 90 1.014 1.015 1.016 OSO 0,2 9,7 0,0
Últims 13 mesos disponibles
10/2019 9,2 15,0 18,6 19,0 13,9 24,3 31,4 22,2 45 64 82 1.008 1.016 1.021 OSO 1,5 53,1 45,0
09/2019 13,2 18,5 21,2 22,6 21,6 28,1 33,2 20,0 45 70 84 1.009 1.016 1.021 SO 1,1 46,7 97,8
08/2019 17,9 21,5 27,3 26,5 27,8 32,7 38,4 20,5 30 57 74 1.009 1.014 1.018 OSO 0,8 30,6 12,2
07/2019 18,9 21,4 25,2 27,3 28,1 33,7 38,1 19,2 28 48 75 1.004 1.012 1.018 SO 0,7 29,0 3,6
06/2019 13,2 17,6 25,3 23,6 24,6 29,8 38,3 25,1 27 48 73 1.007 1.013 1.021 SO 1,1 32,2 1,4
05/2019 9,7 13,3 18,9 18,4 18,6 24,1 30,3 20,6 37 58 75 1.004 1.014 1.024 OSO 1,1 41,8 6,4
04/2019 7,1 10,2 13,9 14,3 13,7 19,2 27,6 20,5 35 65 88 1.000 1.012 1.024 OSO 2,0 45,1 140,8
03/2019 5,8 9,4 13,7 14,0 11,9 19,6 25,6 19,8 25 50 81 1.010 1.022 1.030 OSO 1,7 37,0 25,4
02/2019 2,9 7,0 11,7 11,6 9,9 17,4 24,3 21,4 26 53 74 996 1.024 1.033 OSO 1,7 49,9 1,2
01/2019 2,6 6,8 11,0 10,3 9,9 14,7 19,1 16,5 39 57 80 1.004 1.019 1.031 O 2,9 49,9 1,2
12/2018 5,8 8,8 14,3 12,8 12,9 17,6 23,4 17,6 39 61 84 1.008 1.025 1.031 O 1,4 45,1 23,6
11/2018 7,8 10,5 15,2 13,5 12,4 17,7 22,2 14,4 40 66 85 999 1.015 1.022 OSO 2,0 48,3 63,6
10/2018 6,3 14,0 17,2 18,0 13,5 23,4 28,0 21,7 44 66 79 998 1.014 1.024 OSO 1,2 47,0 72,0
Tots els anys disponibles
2018 2,3 13,4 25,7 17,6 5,9 23,0 36,8 34,5 33 61 87 994 1.015 1.034 OSO 1,8 55,0 435,4
2017 -0,1 13,4 26,7 18,0 6,1 23,5 39,4 39,5 23 59 88 998 1.018 1.036 OSO 1,6 58,0 380,6
2016 2,0 13,4 24,6 18,2 10,4 23,1 39,3 37,3 22 61 91 995 1.017 1.037 O 0,1 53,0 353,6
Temperatura (°C)
Humitat relativa (%)
Velocitat del vent i ràfega màxima (km/h)
Direcció del vent (°)
Pressió (hPa)
Precipitació (mm)
Nota sobre les dades: s'avisa a l'usuari de la provisionalitat i no oficialitat d'aquestes dades
Logo AVAMET blanc
Web allotjada a Sollutia
Llicència de Creative CommonsLa web d'AVAMET i els seus continguts estan subjectes a una llicència de
Reconeixement - No Comercial - Compartir igual
Últimes estacions: Xàbia - Alt de la Granadella (Soci), Villena - Sierra de Salinas (Soci), Sueca - Centre (Inforatge), Xàbia - La Plana (Soci), Banyeres de Mariola - Molí Sol (Soci), Villena - Villa Ventín (Soci), Benissa - Convent (Soci), - - -